Time;durP1;ratioP1;P1;durP2;ratioP2;P2;SDS_P1;SDS_P2;PMS_P1;PMS_P2;Temp;Humidity;BMP_temperature;BMP_pressure;BME280_temperature;BME280_humidity;BME280_pressure;Samples;Min_cycle;Max_cycle;Signal;HPM_P1;HPM_P2
2021/11/05 00:00:22;;;;;;;12.95;6.18;;;;;;;;;;4946301;29;20050;-78
2021/11/05 00:02:53;;;;;;;13.00;6.75;;;;;;;;;;4948051;29;20024;-80
2021/11/05 00:05:20;;;;;;;11.15;7.00;;;;;;;;;;4949645;29;20028;-79
2021/11/05 00:07:46;;;;;;;9.60;5.70;;;;;;;;;;4949682;29;20028;-82
2021/11/05 00:10:12;;;;;;;8.65;5.28;;;;;;;;;;4951188;29;20024;-80
2021/11/05 00:12:38;;;;;;;9.00;5.60;;;;;;;;;;4949364;29;20024;-79
2021/11/05 00:15:05;;;;;;;6.78;5.65;;;;;;;;;;4950151;29;20023;-80
2021/11/05 00:17:31;;;;;;;10.25;7.03;;;;;;;;;;4951933;29;20035;-80
2021/11/05 00:19:57;;;;;;;8.45;6.20;;;;;;;;;;4951860;29;20074;-81
2021/11/05 00:22:23;;;;;;;9.75;8.05;;;;;;;;;;4952062;29;20426;-80
2021/11/05 00:24:49;;;;;;;12.85;7.95;;;;;;;;;;4950609;29;20032;-80
2021/11/05 00:27:15;;;;;;;10.32;6.22;;;;;;;;;;4934583;29;20047;-79
2021/11/05 00:29:42;;;;;;;12.00;8.30;;;;;;;;;;4951341;29;20024;-80
2021/11/05 00:32:09;;;;;;;14.93;6.47;;;;;;;;;;4933036;29;20035;-80
2021/11/05 00:34:35;;;;;;;12.55;6.45;;;;;;;;;;4950113;29;20023;-80
2021/11/05 00:37:01;;;;;;;10.45;5.80;;;;;;;;;;4950230;29;20035;-80
2021/11/05 00:39:27;;;;;;;7.78;5.95;;;;;;;;;;4932607;29;20051;-80
2021/11/05 00:41:53;;;;;;;10.65;5.20;;;;;;;;;;4934212;29;20031;-80
2021/11/05 00:44:19;;;;;;;9.02;5.05;;;;;;;;;;4949453;29;20521;-80
2021/11/05 00:46:45;;;;;;;7.43;5.53;;;;;;;;;;4932935;29;20043;-79
2021/11/05 00:49:12;;;;;;;10.00;5.80;;;;;;;;;;4951028;29;20016;-80
2021/11/05 00:51:38;;;;;;;14.02;6.47;;;;;;;;;;4950346;29;20019;-81
2021/11/05 00:54:04;;;;;;;11.35;6.05;;;;;;;;;;4951033;29;20047;-79
2021/11/05 00:56:30;;;;;;;11.32;6.20;;;;;;;;;;4931627;29;20055;-81
2021/11/05 00:58:56;;;;;;;10.95;5.25;;;;;;;;;;4932365;29;20032;-78
2021/11/05 01:01:22;;;;;;;9.82;5.68;;;;;;;;;;4949402;29;20510;-79
2021/11/05 01:03:48;;;;;;;7.40;4.47;;;;;;;;;;4949457;29;20499;-79
2021/11/05 01:06:17;;;;;;;9.52;5.70;;;;;;;;;;4947895;29;20435;-79
2021/11/05 01:08:44;;;;;;;7.35;4.65;;;;;;;;;;4949001;29;20016;-80
2021/11/05 01:11:10;;;;;;;10.27;4.60;;;;;;;;;;4949399;29;20032;-80
2021/11/05 01:13:36;;;;;;;11.80;5.07;;;;;;;;;;4950646;29;20016;-79
2021/11/05 01:16:02;;;;;;;11.00;5.07;;;;;;;;;;4949374;29;20039;-80
2021/11/05 01:18:28;;;;;;;12.05;5.47;;;;;;;;;;4950181;29;20090;-80
2021/11/05 01:20:55;;;;;;;9.32;4.78;;;;;;;;;;4952205;29;20103;-80
2021/11/05 01:23:21;;;;;;;9.52;4.15;;;;;;;;;;4954047;29;20032;-79
2021/11/05 01:25:51;;;;;;;12.20;4.68;;;;;;;;;;4953236;29;20554;-79
2021/11/05 01:28:20;;;;;;;9.63;4.30;;;;;;;;;;4954197;29;20635;-80
2021/11/05 01:30:46;;;;;;;15.25;4.85;;;;;;;;;;4953490;29;20034;-80
2021/11/05 01:33:12;;;;;;;6.35;3.50;;;;;;;;;;4952418;29;20197;-79
2021/11/05 01:35:39;;;;;;;10.25;3.75;;;;;;;;;;4952683;29;20019;-79
2021/11/05 01:38:08;;;;;;;7.53;3.97;;;;;;;;;;4952528;29;20046;-79
2021/11/05 01:40:34;;;;;;;8.18;4.80;;;;;;;;;;4951930;29;20091;-80
2021/11/05 01:43:01;;;;;;;8.50;3.90;;;;;;;;;;4953175;29;20032;-79
2021/11/05 01:45:27;;;;;;;8.15;4.15;;;;;;;;;;4953103;29;20031;-80
2021/11/05 01:47:54;;;;;;;7.18;3.83;;;;;;;;;;4952530;29;20028;-80
2021/11/05 01:50:20;;;;;;;11.73;4.22;;;;;;;;;;4953475;29;20028;-80
2021/11/05 01:52:46;;;;;;;14.18;4.07;;;;;;;;;;4952445;29;20083;-79
2021/11/05 01:55:12;;;;;;;9.68;4.15;;;;;;;;;;4953709;29;20499;-80
2021/11/05 01:57:40;;;;;;;8.90;4.40;;;;;;;;;;4953064;29;20031;-81
2021/11/05 02:00:07;;;;;;;10.40;4.55;;;;;;;;;;4952875;29;20468;-79
2021/11/05 02:02:33;;;;;;;8.80;5.55;;;;;;;;;;4953167;29;20091;-79
2021/11/05 02:04:59;;;;;;;7.50;5.68;;;;;;;;;;4935988;29;20095;-79
2021/11/05 02:07:27;;;;;;;9.27;4.13;;;;;;;;;;4935656;29;20028;-81
2021/11/05 02:09:55;;;;;;;7.72;4.40;;;;;;;;;;4951797;29;20048;-79
2021/11/05 02:12:22;;;;;;;7.70;3.58;;;;;;;;;;4935377;29;20008;-79
2021/11/05 02:14:48;;;;;;;7.82;4.20;;;;;;;;;;4935338;29;20028;-79
2021/11/05 02:17:14;;;;;;;11.30;3.90;;;;;;;;;;4953031;29;20083;-79
2021/11/05 02:19:42;;;;;;;6.28;3.45;;;;;;;;;;4935292;29;20031;-79
2021/11/05 02:22:08;;;;;;;6.80;3.50;;;;;;;;;;4951906;29;20387;-79
2021/11/05 02:24:34;;;;;;;14.00;4.72;;;;;;;;;;4952889;29;20083;-79
2021/11/05 02:27:01;;;;;;;8.50;3.70;;;;;;;;;;4938923;29;20505;-80
2021/11/05 02:29:28;;;;;;;9.48;4.45;;;;;;;;;;4970426;29;20070;-81
2021/11/05 02:31:54;;;;;;;13.90;4.63;;;;;;;;;;4970497;28;20023;-80
2021/11/05 02:34:20;;;;;;;8.38;4.25;;;;;;;;;;4971505;29;20037;-81
2021/11/05 02:36:47;;;;;;;10.85;4.75;;;;;;;;;;4971208;29;20096;-79
2021/11/05 02:39:13;;;;;;;7.50;4.25;;;;;;;;;;4972901;29;20122;-80
2021/11/05 02:41:40;;;;;;;7.18;3.88;;;;;;;;;;4972562;29;20031;-80
2021/11/05 02:44:07;;;;;;;12.88;4.85;;;;;;;;;;4974318;29;20027;-80
2021/11/05 02:46:33;;;;;;;9.32;4.97;;;;;;;;;;4972884;29;20035;-80
2021/11/05 02:49:01;;;;;;;7.53;4.47;;;;;;;;;;4955854;29;20038;-80
2021/11/05 02:51:28;;;;;;;5.25;3.88;;;;;;;;;;4973560;29;20047;-80
2021/11/05 02:53:54;;;;;;;6.80;3.95;;;;;;;;;;4973767;29;20027;-79
2021/11/05 02:56:21;;;;;;;13.75;5.40;;;;;;;;;;4973600;29;20118;-80
2021/11/05 02:58:48;;;;;;;7.18;4.57;;;;;;;;;;4972536;29;20051;-80
2021/11/05 03:01:14;;;;;;;8.15;5.30;;;;;;;;;;4974110;29;20027;-79
2021/11/05 03:03:40;;;;;;;5.78;3.92;;;;;;;;;;4973974;29;20035;-80
2021/11/05 03:06:06;;;;;;;7.20;4.65;;;;;;;;;;4975642;29;20051;-80
2021/11/05 03:08:32;;;;;;;8.73;4.65;;;;;;;;;;4977245;29;20027;-81
2021/11/05 03:10:58;;;;;;;14.70;4.07;;;;;;;;;;4959919;29;20031;-80
2021/11/05 03:13:24;;;;;;;9.40;4.28;;;;;;;;;;4959335;29;20023;-79
2021/11/05 03:15:50;;;;;;;8.82;4.82;;;;;;;;;;4960745;29;20423;-79
2021/11/05 03:18:17;;;;;;;5.82;4.70;;;;;;;;;;4977491;29;20032;-79
2021/11/05 03:20:44;;;;;;;9.77;4.50;;;;;;;;;;4980248;29;20086;-78
2021/11/05 03:23:10;;;;;;;8.95;4.28;;;;;;;;;;4980486;28;20046;-79
2021/11/05 03:25:37;;;;;;;9.57;4.82;;;;;;;;;;4980591;28;20019;-80
2021/11/05 03:28:03;;;;;;;5.80;3.88;;;;;;;;;;4963141;28;20051;-78
2021/11/05 03:30:30;;;;;;;6.05;3.97;;;;;;;;;;4964359;28;20022;-79
2021/11/05 03:32:56;;;;;;;7.13;4.35;;;;;;;;;;4981053;28;20030;-80
2021/11/05 03:35:22;;;;;;;14.55;4.68;;;;;;;;;;4980734;28;20027;-79
2021/11/05 03:37:48;;;;;;;6.40;4.30;;;;;;;;;;4980705;28;20015;-80
2021/11/05 03:40:15;;;;;;;6.00;3.65;;;;;;;;;;4964512;28;20012;-78
2021/11/05 03:42:41;;;;;;;9.18;4.18;;;;;;;;;;4980343;28;20043;-77
2021/11/05 03:45:07;;;;;;;9.77;4.38;;;;;;;;;;4980868;28;20030;-79
2021/11/05 03:47:35;;;;;;;9.05;4.53;;;;;;;;;;4980818;28;20027;-78
2021/11/05 03:50:01;;;;;;;5.03;3.67;;;;;;;;;;4980666;28;20015;-79
2021/11/05 03:52:29;;;;;;;5.57;3.58;;;;;;;;;;5032113;23;20044;-79
2021/11/05 03:54:56;;;;;;;10.07;3.75;;;;;;;;;;4980739;28;20004;-78
2021/11/05 03:57:24;;;;;;;5.50;3.25;;;;;;;;;;4963908;28;20050;-79
2021/11/05 03:59:59;;;;;;;10.48;3.75;;;;;;;;;;4963899;28;20051;-79
2021/11/05 04:02:34;;;;;;;10.50;4.35;;;;;;;;;;4980789;28;20059;-78
2021/11/05 04:05:08;;;;;;;7.15;4.25;;;;;;;;;;4963996;28;20050;-79
2021/11/05 04:07:37;;;;;;;6.05;3.42;;;;;;;;;;4964045;28;20023;-78
2021/11/05 04:10:04;;;;;;;5.18;3.80;;;;;;;;;;4980511;28;20064;-79
2021/11/05 04:12:32;;;;;;;8.85;2.97;;;;;;;;;;4980338;28;20011;-78
2021/11/05 04:15:06;;;;;;;6.13;3.08;;;;;;;;;;4980270;28;20045;-79
2021/11/05 04:17:37;;;;;;;8.43;3.75;;;;;;;;;;4963957;28;20130;-80
2021/11/05 04:20:04;;;;;;;8.07;3.55;;;;;;;;;;4980340;28;20019;-79
2021/11/05 04:22:32;;;;;;;7.30;3.58;;;;;;;;;;4978418;28;20058;-79
2021/11/05 04:25:06;;;;;;;11.10;3.90;;;;;;;;;;4975753;29;20055;-79
2021/11/05 04:27:38;;;;;;;5.80;3.03;;;;;;;;;;4958620;29;20038;-79
2021/11/05 04:30:13;;;;;;;6.30;3.00;;;;;;;;;;4958643;29;20026;-79
2021/11/05 04:32:46;;;;;;;8.40;3.67;;;;;;;;;;4959317;29;20031;-79
2021/11/05 04:35:12;;;;;;;7.18;3.17;;;;;;;;;;4975084;29;20043;-80
2021/11/05 04:37:39;;;;;;;6.13;3.67;;;;;;;;;;4957282;29;20011;-79
2021/11/05 04:40:17;;;;;;;5.10;3.13;;;;;;;;;;4958142;29;20062;-80
2021/11/05 04:42:52;;;;;;;7.05;2.80;;;;;;;;;;4955773;29;20054;-79
2021/11/05 04:45:27;;;;;;;5.70;3.17;;;;;;;;;;4974228;29;20043;-79
2021/11/05 04:47:53;;;;;;;5.40;2.95;;;;;;;;;;4958011;29;20042;-80
2021/11/05 04:50:19;;;;;;;5.30;3.00;;;;;;;;;;4958249;29;20027;-79
2021/11/05 04:52:48;;;;;;;5.18;2.80;;;;;;;;;;4972963;29;20107;-79
2021/11/05 04:55:18;;;;;;;6.57;2.83;;;;;;;;;;4956418;29;20019;-79
2021/11/05 04:57:44;;;;;;;7.85;3.03;;;;;;;;;;4958395;29;20062;-79
2021/11/05 05:00:11;;;;;;;7.78;3.20;;;;;;;;;;4976019;29;20027;-78
2021/11/05 05:02:38;;;;;;;5.68;2.67;;;;;;;;;;4975213;29;20027;-80
2021/11/05 05:05:05;;;;;;;6.65;2.90;;;;;;;;;;4974533;29;20023;-79
2021/11/05 05:07:40;;;;;;;7.50;3.47;;;;;;;;;;4955952;29;20029;-79
2021/11/05 05:10:16;;;;;;;5.55;3.13;;;;;;;;;;4973522;29;20039;-78
2021/11/05 05:12:44;;;;;;;7.05;4.00;;;;;;;;;;4958034;29;20046;-79
2021/11/05 05:15:11;;;;;;;7.75;2.83;;;;;;;;;;4974886;29;20027;-79
2021/11/05 05:17:38;;;;;;;6.00;2.90;;;;;;;;;;4974569;29;20019;-80
2021/11/05 05:20:09;;;;;;;6.18;2.75;;;;;;;;;;4974253;29;20193;-78
2021/11/05 05:22:43;;;;;;;6.50;3.28;;;;;;;;;;4974622;29;20027;-80
2021/11/05 05:25:11;;;;;;;8.23;3.15;;;;;;;;;;4957215;29;20458;-80
2021/11/05 05:27:38;;;;;;;6.20;3.42;;;;;;;;;;4972170;29;20014;-80
2021/11/05 05:30:07;;;;;;;8.25;3.58;;;;;;;;;;4954214;29;20055;-79
2021/11/05 05:32:33;;;;;;;11.02;3.53;;;;;;;;;;4972175;29;20019;-79
2021/11/05 05:35:02;;;;;;;11.30;3.47;;;;;;;;;;4954841;29;20047;-79
2021/11/05 05:37:28;;;;;;;5.30;2.92;;;;;;;;;;4970385;29;20031;-79
2021/11/05 05:39:57;;;;;;;6.30;3.10;;;;;;;;;;4970940;29;20028;-80
2021/11/05 05:42:30;;;;;;;6.78;3.00;;;;;;;;;;4970048;29;20023;-79
2021/11/05 05:44:59;;;;;;;7.13;3.13;;;;;;;;;;4970270;29;20078;-79
2021/11/05 05:47:27;;;;;;;5.30;3.45;;;;;;;;;;4953552;29;20031;-79
2021/11/05 05:49:55;;;;;;;4.78;3.13;;;;;;;;;;4972146;29;20561;-79
2021/11/05 05:52:30;;;;;;;12.98;4.25;;;;;;;;;;4969607;29;20043;-78
2021/11/05 05:55:03;;;;;;;5.35;3.70;;;;;;;;;;4953466;29;20071;-80
2021/11/05 05:57:29;;;;;;;6.88;4.53;;;;;;;;;;4954376;29;20031;-79
2021/11/05 05:59:55;;;;;;;4.63;3.13;;;;;;;;;;4954544;29;20042;-80
2021/11/05 06:02:29;;;;;;;7.60;3.70;;;;;;;;;;4943962;29;20031;-79
2021/11/05 06:04:55;;;;;;;6.72;3.28;;;;;;;;;;4941707;29;20031;-79
2021/11/05 06:07:21;;;;;;;8.68;4.05;;;;;;;;;;4950183;28;20074;-80
2021/11/05 06:09:57;;;;;;;4.00;2.80;;;;;;;;;;4936747;29;20090;-79
2021/11/05 06:12:31;;;;;;;7.07;2.75;;;;;;;;;;4953945;29;20024;-79
2021/11/05 06:15:07;;;;;;;5.70;3.00;;;;;;;;;;4953471;29;20020;-79
2021/11/05 06:17:42;;;;;;;7.00;2.60;;;;;;;;;;4970818;29;20083;-80
2021/11/05 06:20:11;;;;;;;6.05;2.60;;;;;;;;;;4972336;29;20034;-79
2021/11/05 06:22:44;;;;;;;8.20;3.25;;;;;;;;;;4970053;29;20054;-79
2021/11/05 06:25:20;;;;;;;4.97;2.72;;;;;;;;;;4952107;29;20031;-79
2021/11/05 06:27:51;;;;;;;5.75;2.90;;;;;;;;;;4954422;29;20027;-81
2021/11/05 06:30:17;;;;;;;4.90;2.53;;;;;;;;;;4971590;29;20024;-79
2021/11/05 06:32:43;;;;;;;5.78;2.80;;;;;;;;;;4954003;29;20023;-80
2021/11/05 06:35:20;;;;;;;5.13;3.15;;;;;;;;;;4971084;29;20027;-81
2021/11/05 06:37:55;;;;;;;5.03;2.20;;;;;;;;;;4971307;29;20478;-79
2021/11/05 06:40:24;;;;;;;3.45;2.40;;;;;;;;;;4970653;29;20034;-80
2021/11/05 06:42:50;;;;;;;5.72;2.67;;;;;;;;;;4955146;29;20569;-81
2021/11/05 06:45:16;;;;;;;4.68;2.80;;;;;;;;;;4956414;29;20069;-79
2021/11/05 06:47:43;;;;;;;7.68;2.72;;;;;;;;;;4957758;29;20027;-80
2021/11/05 06:50:10;;;;;;;5.18;2.60;;;;;;;;;;4971522;29;20051;-79
2021/11/05 06:52:45;;;;;;;4.53;3.00;;;;;;;;;;4969954;29;20035;-80
2021/11/05 06:55:18;;;;;;;6.32;2.58;;;;;;;;;;4972597;29;20023;-80
2021/11/05 06:57:55;;;;;;;5.20;2.60;;;;;;;;;;4971538;29;20082;-79
2021/11/05 07:00:24;;;;;;;4.15;2.78;;;;;;;;;;4955628;29;20027;-79
2021/11/05 07:02:50;;;;;;;4.70;2.97;;;;;;;;;;4957972;28;20022;-79
2021/11/05 07:05:30;;;;;;;;;;;;;;;;;;;;;
2021/11/05 07:07:56;;;;;;;6.53;2.55;;;;;;;;;;4976799;28;20046;-80
2021/11/05 07:10:25;;;;;;;2.92;2.17;;;;;;;;;;4955641;29;20042;-80
2021/11/05 07:13:00;;;;;;;6.45;2.83;;;;;;;;;;4972546;29;20046;-80
2021/11/05 07:15:36;;;;;;;8.23;3.10;;;;;;;;;;4973858;28;20024;-79
2021/11/05 07:18:01;;;;;;;;;;;;;;;;;;4956465;29;20031;-80
2021/11/05 07:20:40;;;;;;;;;;;;;;;;;;4975497;29;19922;-80
2021/11/05 07:23:15;;;;;;;5.22;3.17;;;;;;;;;;4957440;29;20385;-79
2021/11/05 07:25:51;;;;;;;5.10;4.10;;;;;;;;;;4956030;29;20397;-80
2021/11/05 07:28:20;;;;;;;6.55;3.90;;;;;;;;;;4976253;29;20023;-79
2021/11/05 07:30:46;;;;;;;6.25;4.20;;;;;;;;;;4973067;29;20034;-79
2021/11/05 07:33:19;;;;;;;11.38;5.13;;;;;;;;;;4956408;29;20039;-80
2021/11/05 07:35:46;;;;;;;9.05;5.15;;;;;;;;;;4976687;28;20039;-80
2021/11/05 07:38:12;;;;;;;6.57;3.95;;;;;;;;;;4973008;29;20050;-80
2021/11/05 07:40:38;;;;;;;8.55;4.25;;;;;;;;;;4956884;29;20083;-81
2021/11/05 07:43:04;;;;;;;5.57;3.75;;;;;;;;;;4971593;29;20024;-80
2021/11/05 07:48:33;;;;;;;7.13;3.00;;;;;;;;;;4963725;29;20106;-80
2021/11/05 07:51:08;;;;;;;8.13;3.83;;;;;;;;;;4955401;29;20114;-80
2021/11/05 07:53:35;;;;;;;6.38;3.33;;;;;;;;;;4955271;29;20055;-80
2021/11/05 07:56:01;;;;;;;4.93;3.78;;;;;;;;;;4973097;29;20030;-81
2021/11/05 07:58:27;;;;;;;4.70;3.30;;;;;;;;;;4971318;29;20035;-80
2021/11/05 08:00:53;;;;;;;7.38;3.08;;;;;;;;;;4971335;29;20031;-80
2021/11/05 08:03:21;;;;;;;7.78;3.53;;;;;;;;;;4971984;29;20019;-79
2021/11/05 08:05:48;;;;;;;4.95;3.15;;;;;;;;;;4972318;29;20024;-80
2021/11/05 08:08:34;;;;;;;9.07;3.38;;;;;;;;;;4952569;29;20066;-80
2021/11/05 08:11:00;;;;;;;9.10;3.75;;;;;;;;;;4960773;29;20036;-79
2021/11/05 08:13:27;;;;;;;3.40;2.50;;;;;;;;;;4970492;29;20008;-80
2021/11/05 08:16:02;;;;;;;5.53;2.88;;;;;;;;;;4965482;29;20153;-77
2021/11/05 08:18:28;;;;;;;7.22;3.05;;;;;;;;;;4965941;29;20035;-78
2021/11/05 08:20:55;;;;;;;4.53;2.78;;;;;;;;;;4966117;29;20031;-76
2021/11/05 08:23:21;;;;;;;12.30;2.80;;;;;;;;;;4963037;29;20038;-76
2021/11/05 08:26:00;;;;;;;7.20;2.83;;;;;;;;;;4962638;29;20191;-77
2021/11/05 08:28:26;;;;;;;16.23;8.50;;;;;;;;;;4966241;29;20039;-77
2021/11/05 08:30:53;;;;;;;23.20;11.40;;;;;;;;;;4962418;29;20515;-79
2021/11/05 08:33:22;;;;;;;43.15;18.23;;;;;;;;;;4963640;29;20053;-77
2021/11/05 08:35:51;;;;;;;27.88;13.30;;;;;;;;;;4962204;29;20027;-78
2021/11/05 08:38:25;;;;;;;43.95;20.67;;;;;;;;;;4959884;29;20045;-78
2021/11/05 08:41:21;;;;;;;62.67;27.17;;;;;;;;;;4948466;29;20528;-78
2021/11/05 08:43:56;;;;;;;28.75;13.48;;;;;;;;;;4935341;29;20039;-78
2021/11/05 08:46:22;;;;;;;43.38;21.60;;;;;;;;;;4946010;29;20098;-76
2021/11/05 08:48:56;;;;;;;24.08;14.38;;;;;;;;;;4946569;29;20502;-77
2021/11/05 08:51:23;;;;;;;16.48;10.85;;;;;;;;;;4945837;29;20028;-75
2021/11/05 08:53:50;;;;;;;13.50;8.82;;;;;;;;;;4947170;29;20055;-77
2021/11/05 08:56:17;;;;;;;14.15;9.50;;;;;;;;;;4946735;29;20035;-76
2021/11/05 08:58:43;;;;;;;9.23;6.50;;;;;;;;;;4949295;29;20118;-76
2021/11/05 09:01:13;;;;;;;7.13;4.57;;;;;;;;;;4946819;29;20032;-79
2021/11/05 09:03:40;;;;;;;6.63;3.00;;;;;;;;;;4944900;29;20031;-77
2021/11/05 09:06:07;;;;;;;5.90;3.08;;;;;;;;;;4942349;29;20036;-76
2021/11/05 09:08:33;;;;;;;3.47;2.50;;;;;;;;;;4928477;29;20063;-75
2021/11/05 09:11:03;;;;;;;5.35;2.55;;;;;;;;;;4966532;29;20529;-77
2021/11/05 09:13:29;;;;;;;3.88;2.80;;;;;;;;;;4963463;29;20027;-76
2021/11/05 09:15:59;;;;;;;3.72;2.30;;;;;;;;;;4961070;29;20095;-76
2021/11/05 09:18:25;;;;;;;5.25;2.33;;;;;;;;;;4967712;29;20035;-78
2021/11/05 09:21:08;;;;;;;5.82;2.35;;;;;;;;;;4964357;29;20023;-76
2021/11/05 09:23:34;;;;;;;5.35;2.40;;;;;;;;;;4933476;29;20032;-79
2021/11/05 09:26:00;;;;;;;4.13;2.60;;;;;;;;;;4954801;29;20031;-78
2021/11/05 09:28:27;;;;;;;27.45;4.93;;;;;;;;;;4953770;29;20032;-78
2021/11/05 09:30:53;;;;;;;3.85;2.65;;;;;;;;;;4946858;29;20103;-78
2021/11/05 09:33:19;;;;;;;7.35;3.17;;;;;;;;;;4958090;29;20067;-78
2021/11/05 09:35:45;;;;;;;5.05;3.10;;;;;;;;;;4957239;29;20035;-77
2021/11/05 09:38:13;;;;;;;6.82;4.15;;;;;;;;;;4960398;29;20038;-77
2021/11/05 09:40:39;;;;;;;7.90;5.93;;;;;;;;;;4961786;28;20039;-78
2021/11/05 09:43:06;;;;;;;38.95;26.23;;;;;;;;;;4958769;29;20069;-77
2021/11/05 09:45:32;;;;;;;12.10;10.13;;;;;;;;;;4949076;29;20055;-79
2021/11/05 09:48:02;;;;;;;8.65;6.25;;;;;;;;;;4962663;29;20040;-78
2021/11/05 09:50:29;;;;;;;6.35;4.18;;;;;;;;;;4946736;29;20083;-78
2021/11/05 09:52:55;;;;;;;7.50;5.53;;;;;;;;;;4943196;29;20148;-77
2021/11/05 09:55:22;;;;;;;8.98;7.65;;;;;;;;;;4946889;29;20032;-78
2021/11/05 09:57:48;;;;;;;7.63;5.57;;;;;;;;;;4953216;29;20040;-76
2021/11/05 10:00:17;;;;;;;5.93;4.68;;;;;;;;;;4929571;29;20043;-77
2021/11/05 10:02:44;;;;;;;5.30;3.63;;;;;;;;;;4943843;29;20094;-79
2021/11/05 10:05:11;;;;;;;4.93;3.88;;;;;;;;;;4952544;29;20032;-80
2021/11/05 10:07:57;;;;;;;6.45;3.70;;;;;;;;;;4941398;29;20035;-82
2021/11/05 10:10:26;;;;;;;8.52;5.60;;;;;;;;;;4955499;29;20038;-79
2021/11/05 10:13:03;;;;;;;8.75;7.47;;;;;;;;;;4943086;29;20071;-78
2021/11/05 10:15:35;;;;;;;10.50;8.10;;;;;;;;;;4943169;29;20090;-79
2021/11/05 10:18:29;;;;;;;9.27;8.38;;;;;;;;;;4926889;29;20043;-80
2021/11/05 10:21:09;;;;;;;8.07;6.85;;;;;;;;;;4935581;29;20047;-79
2021/11/05 10:23:36;;;;;;;7.82;3.80;;;;;;;;;;4940952;29;20040;-81
2021/11/05 10:26:03;;;;;;;3.78;3.28;;;;;;;;;;4926803;29;20028;-81
2021/11/05 10:28:29;;;;;;;5.57;4.25;;;;;;;;;;4941779;29;20028;-80
2021/11/05 10:30:55;;;;;;;7.15;3.60;;;;;;;;;;4946568;29;20078;-77
2021/11/05 10:33:24;;;;;;;9.45;3.95;;;;;;;;;;4947079;29;20365;-77
2021/11/05 10:35:51;;;;;;;10.60;3.65;;;;;;;;;;4958718;29;20027;-79
2021/11/05 10:38:18;;;;;;;5.43;2.80;;;;;;;;;;4934372;29;20044;-79
2021/11/05 10:40:48;;;;;;;3.80;2.90;;;;;;;;;;4958869;29;20569;-77
2021/11/05 10:43:15;;;;;;;8.18;5.03;;;;;;;;;;4960353;29;20042;-79
2021/11/05 10:45:42;;;;;;;8.20;6.45;;;;;;;;;;4941268;29;20027;-77
2021/11/05 10:48:12;;;;;;;19.67;10.18;;;;;;;;;;4942964;29;20027;-78
2021/11/05 10:50:49;;;;;;;14.77;7.88;;;;;;;;;;4944485;29;20078;-79
2021/11/05 10:53:17;;;;;;;6.38;4.38;;;;;;;;;;4927661;29;20059;-78
2021/11/05 10:55:43;;;;;;;8.30;4.00;;;;;;;;;;4954608;29;20027;-79
2021/11/05 10:58:14;;;;;;;6.70;3.65;;;;;;;;;;4950103;29;20063;-80
2021/11/05 11:00:41;;;;;;;3.28;2.25;;;;;;;;;;4964312;29;20031;-79
2021/11/05 11:03:10;;;;;;;5.25;4.03;;;;;;;;;;4956100;29;20079;-79
2021/11/05 11:05:43;;;;;;;16.55;8.70;;;;;;;;;;4965874;29;20038;-80
2021/11/05 11:08:24;;;;;;;5.53;3.42;;;;;;;;;;4948608;29;20056;-79
2021/11/05 11:10:51;;;;;;;4.82;4.10;;;;;;;;;;4948300;29;20030;-79
2021/11/05 11:13:47;;;;;;;6.20;3.67;;;;;;;;;;4948931;29;20027;-79
2021/11/05 11:16:21;;;;;;;4.13;3.78;;;;;;;;;;4950526;29;20094;-81
2021/11/05 11:18:48;;;;;;;6.47;4.53;;;;;;;;;;4957019;29;20028;-78
2021/11/05 11:21:15;;;;;;;4.90;3.60;;;;;;;;;;4966250;29;20027;-79
2021/11/05 11:23:41;;;;;;;4.35;3.83;;;;;;;;;;4961257;29;20023;-78
2021/11/05 11:26:08;;;;;;;4.40;3.38;;;;;;;;;;4957994;29;20027;-79
2021/11/05 11:28:34;;;;;;;4.20;3.35;;;;;;;;;;4959245;29;20062;-77
2021/11/05 11:31:01;;;;;;;4.05;3.05;;;;;;;;;;4961558;29;20028;-81
2021/11/05 11:33:27;;;;;;;6.07;3.72;;;;;;;;;;4960556;29;20031;-79
2021/11/05 11:35:54;;;;;;;8.68;4.55;;;;;;;;;;4958467;29;20031;-81
2021/11/05 11:38:20;;;;;;;3.63;2.90;;;;;;;;;;4945224;29;20042;-79
2021/11/05 11:40:48;;;;;;;7.18;4.07;;;;;;;;;;4965549;29;20050;-78
2021/11/05 11:43:15;;;;;;;6.90;4.25;;;;;;;;;;4962509;29;20038;-77
2021/11/05 11:45:54;;;;;;;5.70;3.50;;;;;;;;;;4959885;29;20033;-80
2021/11/05 11:48:38;;;;;;;5.57;3.35;;;;;;;;;;4962676;29;20033;-77
2021/11/05 11:51:16;;;;;;;4.35;3.58;;;;;;;;;;4960780;29;20569;-77
2021/11/05 11:53:46;;;;;;;4.75;3.13;;;;;;;;;;4961384;29;20114;-78
2021/11/05 11:56:31;;;;;;;6.57;4.53;;;;;;;;;;4934707;29;20035;-77
2021/11/05 11:59:04;;;;;;;7.00;4.00;;;;;;;;;;4925081;29;20039;-77
2021/11/05 12:01:36;;;;;;;4.28;3.83;;;;;;;;;;4944349;29;20346;-76
2021/11/05 12:04:04;;;;;;;5.13;3.30;;;;;;;;;;4925593;29;20098;-79
2021/11/05 12:06:48;;;;;;;4.50;3.40;;;;;;;;;;4943592;29;20042;-78
2021/11/05 12:09:28;;;;;;;5.03;2.90;;;;;;;;;;4938205;29;20035;-79
2021/11/05 12:12:13;;;;;;;4.80;2.97;;;;;;;;;;4952718;29;20046;-76
2021/11/05 12:14:57;;;;;;;6.20;4.03;;;;;;;;;;4958309;29;20419;-75
2021/11/05 12:17:23;;;;;;;4.45;3.40;;;;;;;;;;4959973;29;20114;-77
2021/11/05 12:19:49;;;;;;;4.25;2.97;;;;;;;;;;4958505;29;20031;-78
2021/11/05 12:22:16;;;;;;;3.22;2.78;;;;;;;;;;4961209;29;20055;-79
2021/11/05 12:24:43;;;;;;;5.13;3.22;;;;;;;;;;4964181;29;20038;-75
2021/11/05 12:27:10;;;;;;;3.75;3.13;;;;;;;;;;4963242;29;20038;-77
2021/11/05 12:29:39;;;;;;;5.55;3.30;;;;;;;;;;4959213;29;20023;-78
2021/11/05 12:32:15;;;;;;;6.22;4.35;;;;;;;;;;4959005;29;20038;-79
2021/11/05 12:34:45;;;;;;;9.30;7.20;;;;;;;;;;4957129;29;20034;-75
2021/11/05 12:37:12;;;;;;;5.53;4.82;;;;;;;;;;4945252;29;20387;-75
2021/11/05 12:39:40;;;;;;;18.48;13.30;;;;;;;;;;4920620;29;20036;-77
2021/11/05 12:42:11;;;;;;;6.45;4.45;;;;;;;;;;4937729;29;20035;-78
2021/11/05 12:45:03;;;;;;;5.18;4.68;;;;;;;;;;4937619;29;20103;-76
2021/11/05 12:47:46;;;;;;;5.63;5.05;;;;;;;;;;4941528;29;20091;-76
2021/11/05 12:50:14;;;;;;;6.15;4.43;;;;;;;;;;4942882;29;20035;-76
2021/11/05 12:52:41;;;;;;;6.90;4.32;;;;;;;;;;4939234;29;20059;-76
2021/11/05 12:55:07;;;;;;;5.03;4.20;;;;;;;;;;4921761;29;20106;-76
2021/11/05 12:57:33;;;;;;;6.18;5.15;;;;;;;;;;4948119;29;20070;-77
2021/11/05 13:00:01;;;;;;;4.90;4.50;;;;;;;;;;4951526;29;20031;-77
2021/11/05 13:02:27;;;;;;;5.15;4.05;;;;;;;;;;4941568;29;20047;-75
2021/11/05 13:04:53;;;;;;;3.53;2.70;;;;;;;;;;4945091;29;20490;-77
2021/11/05 13:07:20;;;;;;;2.80;2.60;;;;;;;;;;4956749;29;20471;-76
2021/11/05 13:09:50;;;;;;;3.00;2.50;;;;;;;;;;4933983;29;20034;-77
2021/11/05 13:12:18;;;;;;;3.90;2.70;;;;;;;;;;4945941;29;20042;-79
2021/11/05 13:14:54;;;;;;;4.78;3.13;;;;;;;;;;4943778;29;20016;-77
2021/11/05 13:17:20;;;;;;;5.05;2.92;;;;;;;;;;4929763;29;20511;-78
2021/11/05 13:19:54;;;;;;;5.47;3.50;;;;;;;;;;4931327;29;20028;-78
2021/11/05 13:22:22;;;;;;;4.32;2.30;;;;;;;;;;4949611;29;20514;-79
2021/11/05 13:24:48;;;;;;;5.05;2.78;;;;;;;;;;4950752;29;20031;-77
2021/11/05 13:27:15;;;;;;;9.00;5.50;;;;;;;;;;4948870;29;20073;-79
2021/11/05 13:29:41;;;;;;;7.28;5.68;;;;;;;;;;4949499;29;20034;-78
2021/11/05 13:32:18;;;;;;;4.65;2.80;;;;;;;;;;4947833;29;20054;-78
2021/11/05 13:34:53;;;;;;;3.28;2.60;;;;;;;;;;4937570;29;20031;-78
2021/11/05 13:37:19;;;;;;;5.25;3.35;;;;;;;;;;4934301;29;20035;-75
2021/11/05 13:39:46;;;;;;;3.83;3.45;;;;;;;;;;4944354;29;20061;-77
2021/11/05 13:42:17;;;;;;;7.85;6.13;;;;;;;;;;4945186;29;20032;-76
2021/11/05 13:44:43;;;;;;;4.93;4.38;;;;;;;;;;4928263;29;20032;-76
2021/11/05 13:47:14;;;;;;;6.35;4.25;;;;;;;;;;4927077;29;20032;-79
2021/11/05 13:49:43;;;;;;;10.35;4.25;;;;;;;;;;4963603;29;20039;-79
2021/11/05 13:52:10;;;;;;;3.72;3.20;;;;;;;;;;4966550;29;20051;-77
2021/11/05 13:54:46;;;;;;;6.47;3.70;;;;;;;;;;4951154;29;20094;-75
2021/11/05 13:57:16;;;;;;;5.05;3.72;;;;;;;;;;4945551;29;20060;-78
2021/11/05 13:59:43;;;;;;;4.15;3.42;;;;;;;;;;4946770;29;20083;-80
2021/11/05 14:02:10;;;;;;;5.50;2.72;;;;;;;;;;4964109;29;20039;-77
2021/11/05 14:04:36;;;;;;;6.72;3.50;;;;;;;;;;4946472;29;20027;-78
2021/11/05 14:07:08;;;;;;;8.02;4.55;;;;;;;;;;4963548;29;20020;-78
2021/11/05 14:09:34;;;;;;;3.60;3.25;;;;;;;;;;4943661;29;20086;-79
2021/11/05 14:12:02;;;;;;;6.72;2.97;;;;;;;;;;4944541;29;20077;-78
2021/11/05 14:14:29;;;;;;;7.80;4.03;;;;;;;;;;4939337;29;20402;-78
2021/11/05 14:16:57;;;;;;;5.10;3.60;;;;;;;;;;4943146;29;20603;-78
2021/11/05 14:19:27;;;;;;;5.32;3.40;;;;;;;;;;4945916;29;20039;-78
2021/11/05 14:22:00;;;;;;;4.28;2.85;;;;;;;;;;4944620;29;20109;-79
2021/11/05 14:24:27;;;;;;;4.57;2.70;;;;;;;;;;4957288;29;20139;-77
2021/11/05 14:27:29;;;;;;;6.75;3.10;;;;;;;;;;4957780;28;20028;-76
2021/11/05 14:29:57;;;;;;;5.07;4.50;;;;;;;;;;4902983;29;20077;-77
2021/11/05 14:32:35;;;;;;;5.10;4.60;;;;;;;;;;4937647;29;20038;-76
2021/11/05 14:35:03;;;;;;;7.28;6.57;;;;;;;;;;4919481;29;20024;-77
2021/11/05 14:37:41;;;;;;;4.63;3.55;;;;;;;;;;4937945;29;20483;-77
2021/11/05 14:40:11;;;;;;;7.63;6.15;;;;;;;;;;4937325;29;20036;-77
2021/11/05 14:42:40;;;;;;;7.13;3.38;;;;;;;;;;4943268;29;20499;-78
2021/11/05 14:45:26;;;;;;;3.72;3.10;;;;;;;;;;4937331;29;20040;-77
2021/11/05 14:47:55;;;;;;;4.47;3.20;;;;;;;;;;4938485;29;20103;-76
2021/11/05 14:50:29;;;;;;;7.03;4.05;;;;;;;;;;4938383;29;20027;-76
2021/11/05 14:52:56;;;;;;;3.92;3.05;;;;;;;;;;4925215;29;20120;-77
2021/11/05 14:55:42;;;;;;;4.70;3.20;;;;;;;;;;4930080;29;20015;-76